createdAt,value
2022-12-03T00:02:25.000Z,30.66
2022-12-03T00:07:24.000Z,30.62
2022-12-03T00:17:24.000Z,31.61
2022-12-03T00:22:24.000Z,32.72
2022-12-03T00:27:25.000Z,32.64
2022-12-03T00:32:24.000Z,31.88
2022-12-03T00:37:24.000Z,30.6
2022-12-03T00:42:24.000Z,30.27
2022-12-03T00:47:24.000Z,30.32
2022-12-03T00:52:24.000Z,29.43
2022-12-03T00:57:24.000Z,29.85
2022-12-03T01:02:24.000Z,28.34
2022-12-03T01:07:24.000Z,27.89
2022-12-03T01:12:25.000Z,30.61
2022-12-03T01:17:24.000Z,28.15
2022-12-03T01:22:24.000Z,29.55
2022-12-03T01:27:25.000Z,26.92
2022-12-03T01:32:24.000Z,28.35
2022-12-03T01:37:25.000Z,28.9
2022-12-03T01:42:24.000Z,27.2
2022-12-03T01:47:25.000Z,29.17
2022-12-03T01:52:24.000Z,31.34
2022-12-03T01:57:24.000Z,33.44
2022-12-03T02:02:24.000Z,34.24
2022-12-03T02:07:24.000Z,31
2022-12-03T02:12:24.000Z,30.71
2022-12-03T02:17:24.000Z,30.07
2022-12-03T02:22:24.000Z,29.12
2022-12-03T02:27:24.000Z,28.19
2022-12-03T02:32:24.000Z,27.24
2022-12-03T02:37:24.000Z,26.09
2022-12-03T02:42:25.000Z,27.51
2022-12-03T02:47:24.000Z,26.68
2022-12-03T02:52:25.000Z,28.49
2022-12-03T02:57:24.000Z,29.49
2022-12-03T03:07:24.000Z,28.87
2022-12-03T03:12:25.000Z,28.05
2022-12-03T03:17:24.000Z,26.27
2022-12-03T03:22:25.000Z,28.18
2022-12-03T03:27:24.000Z,25.18
2022-12-03T03:32:24.000Z,26.59
2022-12-03T03:37:24.000Z,25.19
2022-12-03T03:42:25.000Z,22.94
2022-12-03T03:52:25.000Z,24.74
2022-12-03T03:57:24.000Z,26.17
2022-12-03T04:02:24.000Z,25.67
2022-12-03T04:07:24.000Z,25.5
2022-12-03T04:12:24.000Z,25.58
2022-12-03T04:17:24.000Z,24.84
2022-12-03T04:22:25.000Z,24.82
2022-12-03T04:27:24.000Z,25.65
2022-12-03T04:37:24.000Z,23.86
2022-12-03T04:42:24.000Z,24.88
2022-12-03T04:47:24.000Z,24.43
2022-12-03T04:52:24.000Z,24.8
2022-12-03T04:57:24.000Z,25.85
2022-12-03T05:02:24.000Z,24.13
2022-12-03T05:07:24.000Z,27.6
2022-12-03T05:12:25.000Z,27.73
2022-12-03T05:17:24.000Z,26.96
2022-12-03T05:22:25.000Z,30.59
2022-12-03T05:27:24.000Z,28.72
2022-12-03T05:32:25.000Z,29.06
2022-12-03T05:37:24.000Z,29.36
2022-12-03T05:42:25.000Z,25.43
2022-12-03T05:47:25.000Z,24.59
2022-12-03T05:52:24.000Z,25.7
2022-12-03T05:57:24.000Z,27.6
2022-12-03T06:02:25.000Z,28.54
2022-12-03T06:07:24.000Z,28.51
2022-12-03T06:12:24.000Z,30.24
2022-12-03T06:17:24.000Z,33.12
2022-12-03T06:22:24.000Z,31.8
2022-12-03T06:27:25.000Z,31.82
2022-12-03T06:32:25.000Z,40.05
2022-12-03T06:37:24.000Z,41.95
2022-12-03T06:42:25.000Z,37.53
2022-12-03T06:47:25.000Z,42.81
2022-12-03T06:52:24.000Z,53.35
2022-12-03T07:02:24.000Z,50.96
2022-12-03T07:07:24.000Z,45.46
2022-12-03T07:12:24.000Z,39.9
2022-12-03T07:17:24.000Z,38.29
2022-12-03T07:22:25.000Z,38.56
2022-12-03T07:27:25.000Z,39.06
2022-12-03T07:32:24.000Z,46.2
2022-12-03T07:37:24.000Z,53.21
2022-12-03T07:42:24.000Z,56.42
2022-12-03T07:47:25.000Z,43.41
2022-12-03T07:52:24.000Z,43.9
2022-12-03T07:57:24.000Z,35.94
2022-12-03T08:02:25.000Z,34.94
2022-12-03T08:07:24.000Z,31.86
2022-12-03T08:12:24.000Z,36.15
2022-12-03T08:17:24.000Z,33.59
2022-12-03T08:22:24.000Z,35.29
2022-12-03T08:27:24.000Z,33.78
2022-12-03T08:32:24.000Z,33.84
2022-12-03T08:37:25.000Z,33.11
2022-12-03T08:42:24.000Z,31.19
2022-12-03T08:47:24.000Z,32.72
2022-12-03T08:52:25.000Z,33.81
2022-12-03T08:57:24.000Z,39.15
2022-12-03T09:02:24.000Z,38.2
2022-12-03T09:07:24.000Z,36.41
2022-12-03T09:12:24.000Z,33.85
2022-12-03T09:17:25.000Z,33.74
2022-12-03T09:22:24.000Z,32.73
2022-12-03T09:27:24.000Z,31.82
2022-12-03T09:32:24.000Z,31.85
2022-12-03T09:42:24.000Z,31.73
2022-12-03T09:47:25.000Z,31.35
2022-12-03T09:52:24.000Z,30.83
2022-12-03T09:57:24.000Z,32.14
2022-12-03T10:02:24.000Z,32.31
2022-12-03T10:07:25.000Z,31.26
2022-12-03T10:12:24.000Z,30.64
2022-12-03T10:17:24.000Z,29.29
2022-12-03T10:22:24.000Z,29.42
2022-12-03T10:27:24.000Z,30.46
2022-12-03T10:32:24.000Z,29.83
2022-12-03T10:37:24.000Z,29.55
2022-12-03T10:42:25.000Z,28.39
2022-12-03T10:47:24.000Z,27.94
2022-12-03T10:52:25.000Z,28.25
2022-12-03T10:57:24.000Z,25.34
2022-12-03T11:02:24.000Z,27.91
2022-12-03T11:07:24.000Z,27.54
2022-12-03T11:12:25.000Z,26.99
2022-12-03T11:17:24.000Z,26.68
2022-12-03T11:22:24.000Z,24.98
2022-12-03T11:27:24.000Z,25.64
2022-12-03T11:32:25.000Z,26.19
2022-12-03T11:37:25.000Z,26.55
2022-12-03T11:42:24.000Z,26.81
2022-12-03T11:47:25.000Z,26.19
2022-12-03T11:52:24.000Z,24.68
2022-12-03T11:57:24.000Z,27.52
2022-12-03T12:02:24.000Z,33.84
2022-12-03T12:07:24.000Z,29.84
2022-12-03T12:12:25.000Z,27.34
2022-12-03T12:17:24.000Z,26.3
2022-12-03T12:22:25.000Z,24.52
2022-12-03T12:27:24.000Z,22.68
2022-12-03T12:32:24.000Z,22.78
2022-12-03T12:37:24.000Z,23.25
2022-12-03T12:42:24.000Z,22.35
2022-12-03T12:47:24.000Z,21.87
2022-12-03T12:52:24.000Z,20.6
2022-12-03T12:57:24.000Z,19.64
2022-12-03T13:02:24.000Z,19.8
2022-12-03T13:07:25.000Z,19.13
2022-12-03T13:12:24.000Z,18.91
2022-12-03T13:17:24.000Z,17.82
2022-12-03T13:22:24.000Z,18.28
2022-12-03T13:27:25.000Z,17.8
2022-12-03T13:32:24.000Z,17.63
2022-12-03T13:37:25.000Z,17.45
2022-12-03T13:42:24.000Z,18.13
2022-12-03T13:47:24.000Z,17.65
2022-12-03T13:52:24.000Z,16.38
2022-12-03T13:57:24.000Z,17.46
2022-12-03T14:02:25.000Z,17.6
2022-12-03T14:07:24.000Z,17.91
2022-12-03T14:12:24.000Z,15.83
2022-12-03T14:17:24.000Z,16.82
2022-12-03T14:22:25.000Z,16.82
2022-12-03T14:27:24.000Z,16.32
2022-12-03T14:32:25.000Z,16.83
2022-12-03T14:37:24.000Z,16.35
2022-12-03T14:42:25.000Z,15.55
2022-12-03T14:47:24.000Z,16.97
2022-12-03T14:52:25.000Z,18.23
2022-12-03T14:57:24.000Z,17.14
2022-12-03T15:02:24.000Z,16.81
2022-12-03T15:07:24.000Z,16.99
2022-12-03T15:12:24.000Z,18.68
2022-12-03T15:17:25.000Z,18
2022-12-03T15:22:24.000Z,19.07
2022-12-03T15:32:24.000Z,18.71
2022-12-03T15:37:25.000Z,21.33
2022-12-03T15:42:24.000Z,20.03
2022-12-03T15:47:25.000Z,25.12
2022-12-03T15:52:24.000Z,23.85
2022-12-03T15:57:24.000Z,23.19
2022-12-03T16:02:25.000Z,19.03
2022-12-03T16:07:24.000Z,19.13
2022-12-03T16:12:24.000Z,21.86
2022-12-03T16:17:24.000Z,21.4
2022-12-03T16:27:24.000Z,14.26
2022-12-03T16:32:24.000Z,15.77
2022-12-03T16:42:24.000Z,13.32
2022-12-03T16:47:25.000Z,14.54
2022-12-03T16:52:24.000Z,15.32
2022-12-03T16:57:24.000Z,12.99
2022-12-03T17:02:25.000Z,12.45
2022-12-03T17:07:25.000Z,13.39
2022-12-03T17:12:24.000Z,13.54
2022-12-03T17:17:24.000Z,14.79
2022-12-03T17:22:24.000Z,12.8
2022-12-03T17:27:24.000Z,15.93
2022-12-03T17:32:24.000Z,13.56
2022-12-03T17:37:24.000Z,14.32
2022-12-03T17:42:25.000Z,14.7
2022-12-03T17:47:24.000Z,14.63
2022-12-03T17:52:25.000Z,12.24
2022-12-03T17:57:24.000Z,11.42
2022-12-03T18:02:25.000Z,13.3
2022-12-03T18:07:24.000Z,14.43
2022-12-03T18:12:25.000Z,15.49
2022-12-03T18:17:25.000Z,14.49
2022-12-03T18:22:24.000Z,13.02
2022-12-03T18:27:25.000Z,15.34
2022-12-03T18:32:24.000Z,17.53
2022-12-03T18:37:24.000Z,15.6
2022-12-03T18:42:25.000Z,15.69
2022-12-03T18:47:25.000Z,16.58
2022-12-03T18:52:24.000Z,15.11
2022-12-03T18:57:25.000Z,12.71
2022-12-03T19:07:24.000Z,17
2022-12-03T19:12:25.000Z,16.23
2022-12-03T19:22:24.000Z,16.1
2022-12-03T19:27:25.000Z,16.5
2022-12-03T19:32:24.000Z,17.73
2022-12-03T19:37:25.000Z,16.9
2022-12-03T19:42:24.000Z,15.44
2022-12-03T19:47:25.000Z,15.94
2022-12-03T19:52:24.000Z,17.82
2022-12-03T19:57:25.000Z,17.68
2022-12-03T20:02:25.000Z,17.8
2022-12-03T20:07:24.000Z,18.37
2022-12-03T20:12:25.000Z,17.42
2022-12-03T20:17:24.000Z,18.33
2022-12-03T20:27:24.000Z,17.61
2022-12-03T20:32:24.000Z,17.09
2022-12-03T20:42:24.000Z,15.65
2022-12-03T20:47:25.000Z,17.05
2022-12-03T20:52:24.000Z,16.75
2022-12-03T20:57:25.000Z,16.54
2022-12-03T21:02:24.000Z,16.86
2022-12-03T21:07:24.000Z,15.18
2022-12-03T21:12:24.000Z,15.27
2022-12-03T21:17:25.000Z,13.9
2022-12-03T21:22:24.000Z,14.8
2022-12-03T21:27:24.000Z,14.26
2022-12-03T21:32:25.000Z,14.95
2022-12-03T21:37:24.000Z,14.82
2022-12-03T21:42:24.000Z,15.52
2022-12-03T21:47:24.000Z,16.06
2022-12-03T21:52:25.000Z,16.04
2022-12-03T21:57:24.000Z,14.97
2022-12-03T22:07:24.000Z,14.96
2022-12-03T22:12:25.000Z,15.58
2022-12-03T22:17:24.000Z,14.93
2022-12-03T22:22:25.000Z,16.6
2022-12-03T22:27:24.000Z,16.71
2022-12-03T22:32:25.000Z,17.13
2022-12-03T22:37:24.000Z,16.83
2022-12-03T22:42:24.000Z,17.47
2022-12-03T22:47:24.000Z,16.65
2022-12-03T22:52:25.000Z,17.14
2022-12-03T22:57:24.000Z,16.26
2022-12-03T23:07:24.000Z,17.39
2022-12-03T23:12:24.000Z,17.55
2022-12-03T23:17:24.000Z,17.87
2022-12-03T23:22:24.000Z,18.21
2022-12-03T23:27:24.000Z,18.32
2022-12-03T23:32:25.000Z,18.36
2022-12-03T23:37:24.000Z,17.86
2022-12-03T23:42:24.000Z,18.82
2022-12-03T23:47:25.000Z,18.57
2022-12-03T23:52:24.000Z,18.43
2022-12-03T23:57:25.000Z,18.16
